sensor_id;sensor_type;location;lat;lon;timestamp;P1;durP1;ratioP1;P2;durP2;ratioP2
74375;SDS011;62812;55.188;61.302;2023-04-10T00:00:27;6.90;;;1.55;;
74375;SDS011;62812;55.188;61.302;2023-04-10T00:03:04;5.57;;;1.70;;
74375;SDS011;62812;55.188;61.302;2023-04-10T00:05:36;13.85;;;3.20;;
74375;SDS011;62812;55.188;61.302;2023-04-10T00:08:08;7.97;;;3.20;;
74375;SDS011;62812;55.188;61.302;2023-04-10T00:10:40;7.80;;;2.60;;
74375;SDS011;62812;55.188;61.302;2023-04-10T00:13:13;6.03;;;1.88;;
74375;SDS011;62812;55.188;61.302;2023-04-10T00:15:46;7.53;;;2.20;;
74375;SDS011;62812;55.188;61.302;2023-04-10T00:18:18;8.10;;;2.38;;
74375;SDS011;62812;55.188;61.302;2023-04-10T00:20:50;6.78;;;1.65;;
74375;SDS011;62812;55.188;61.302;2023-04-10T00:23:22;7.45;;;2.10;;
74375;SDS011;62812;55.188;61.302;2023-04-10T00:25:56;8.27;;;2.08;;
74375;SDS011;62812;55.188;61.302;2023-04-10T00:28:28;6.70;;;2.40;;
74375;SDS011;62812;55.188;61.302;2023-04-10T00:31:02;6.47;;;2.03;;
74375;SDS011;62812;55.188;61.302;2023-04-10T00:33:36;8.90;;;2.08;;
74375;SDS011;62812;55.188;61.302;2023-04-10T00:36:09;5.38;;;1.52;;
74375;SDS011;62812;55.188;61.302;2023-04-10T00:38:41;7.40;;;1.73;;
74375;SDS011;62812;55.188;61.302;2023-04-10T00:41:17;9.27;;;1.92;;
74375;SDS011;62812;55.188;61.302;2023-04-10T00:46:56;8.32;;;2.15;;
74375;SDS011;62812;55.188;61.302;2023-04-10T00:52:08;7.90;;;1.80;;
74375;SDS011;62812;55.188;61.302;2023-04-10T00:54:40;8.27;;;1.80;;
74375;SDS011;62812;55.188;61.302;2023-04-10T00:57:12;6.70;;;1.52;;
74375;SDS011;62812;55.188;61.302;2023-04-10T00:59:44;6.25;;;2.00;;
74375;SDS011;62812;55.188;61.302;2023-04-10T01:02:20;10.18;;;2.03;;
74375;SDS011;62812;55.188;61.302;2023-04-10T01:04:52;12.68;;;3.00;;
74375;SDS011;62812;55.188;61.302;2023-04-10T01:07:27;30.65;;;13.15;;
74375;SDS011;62812;55.188;61.302;2023-04-10T01:10:10;14.75;;;2.50;;
74375;SDS011;62812;55.188;61.302;2023-04-10T01:12:54;12.82;;;2.63;;
74375;SDS011;62812;55.188;61.302;2023-04-10T01:15:37;13.00;;;3.00;;
74375;SDS011;62812;55.188;61.302;2023-04-10T01:18:18;10.90;;;2.97;;
74375;SDS011;62812;55.188;61.302;2023-04-10T01:20:54;14.13;;;2.58;;
74375;SDS011;62812;55.188;61.302;2023-04-10T01:29:28;15.25;;;2.78;;
74375;SDS011;62812;55.188;61.302;2023-04-10T01:41:16;10.02;;;2.22;;
74375;SDS011;62812;55.188;61.302;2023-04-10T01:43:44;23.55;;;2.70;;
74375;SDS011;62812;55.188;61.302;2023-04-10T01:48:53;21.73;;;2.88;;
74375;SDS011;62812;55.188;61.302;2023-04-10T01:54:30;11.18;;;1.90;;
74375;SDS011;62812;55.188;61.302;2023-04-10T02:00:13;11.50;;;2.10;;
74375;SDS011;62812;55.188;61.302;2023-04-10T02:06:10;9.73;;;1.80;;
74375;SDS011;62812;55.188;61.302;2023-04-10T02:08:58;7.28;;;1.80;;
74375;SDS011;62812;55.188;61.302;2023-04-10T02:17:25;9.45;;;1.95;;
74375;SDS011;62812;55.188;61.302;2023-04-10T02:22:59;9.48;;;2.10;;
74375;SDS011;62812;55.188;61.302;2023-04-10T02:25:33;6.32;;;1.80;;
74375;SDS011;62812;55.188;61.302;2023-04-10T02:28:11;6.53;;;1.50;;
74375;SDS011;62812;55.188;61.302;2023-04-10T02:31:04;11.63;;;2.38;;
74375;SDS011;62812;55.188;61.302;2023-04-10T02:34:12;8.80;;;1.83;;
74375;SDS011;62812;55.188;61.302;2023-04-10T02:37:13;17.23;;;2.38;;
74375;SDS011;62812;55.188;61.302;2023-04-10T02:42:37;9.40;;;1.80;;
74375;SDS011;62812;55.188;61.302;2023-04-10T02:51:42;10.82;;;2.25;;
74375;SDS011;62812;55.188;61.302;2023-04-10T02:54:18;17.17;;;1.95;;
74375;SDS011;62812;55.188;61.302;2023-04-10T03:00:30;12.10;;;2.45;;
74375;SDS011;62812;55.188;61.302;2023-04-10T03:03:12;11.55;;;2.10;;
74375;SDS011;62812;55.188;61.302;2023-04-10T03:09:00;8.90;;;2.03;;
74375;SDS011;62812;55.188;61.302;2023-04-10T03:23:54;19.42;;;2.13;;
74375;SDS011;62812;55.188;61.302;2023-04-10T03:26:57;7.55;;;1.67;;
74375;SDS011;62812;55.188;61.302;2023-04-10T03:29:24;11.35;;;2.15;;
74375;SDS011;62812;55.188;61.302;2023-04-10T03:37:03;8.48;;;1.75;;
74375;SDS011;62812;55.188;61.302;2023-04-10T03:39:32;13.15;;;1.90;;
74375;SDS011;62812;55.188;61.302;2023-04-10T03:42:06;10.18;;;1.65;;
74375;SDS011;62812;55.188;61.302;2023-04-10T03:44:42;11.75;;;1.88;;
74375;SDS011;62812;55.188;61.302;2023-04-10T03:53:10;12.60;;;2.28;;
74375;SDS011;62812;55.188;61.302;2023-04-10T04:18:03;6.30;;;1.60;;
74375;SDS011;62812;55.188;61.302;2023-04-10T04:30:10;11.05;;;1.67;;
74375;SDS011;62812;55.188;61.302;2023-04-10T04:36:31;11.65;;;1.58;;
74375;SDS011;62812;55.188;61.302;2023-04-10T04:39:09;7.57;;;1.60;;
74375;SDS011;62812;55.188;61.302;2023-04-10T04:41:43;6.57;;;1.60;;
74375;SDS011;62812;55.188;61.302;2023-04-10T04:44:16;15.50;;;2.40;;
74375;SDS011;62812;55.188;61.302;2023-04-10T04:46:50;17.92;;;2.05;;
74375;SDS011;62812;55.188;61.302;2023-04-10T04:49:22;13.20;;;2.03;;
74375;SDS011;62812;55.188;61.302;2023-04-10T04:51:59;11.82;;;1.60;;
74375;SDS011;62812;55.188;61.302;2023-04-10T04:54:31;8.23;;;1.05;;
74375;SDS011;62812;55.188;61.302;2023-04-10T04:57:15;7.75;;;1.42;;
74375;SDS011;62812;55.188;61.302;2023-04-10T04:59:47;7.65;;;1.25;;
74375;SDS011;62812;55.188;61.302;2023-04-10T05:02:20;30.75;;;2.10;;
74375;SDS011;62812;55.188;61.302;2023-04-10T05:04:52;9.90;;;1.60;;
74375;SDS011;62812;55.188;61.302;2023-04-10T05:07:27;7.28;;;1.40;;
74375;SDS011;62812;55.188;61.302;2023-04-10T05:09:59;9.25;;;1.98;;
74375;SDS011;62812;55.188;61.302;2023-04-10T05:12:36;12.63;;;1.73;;
74375;SDS011;62812;55.188;61.302;2023-04-10T05:15:11;8.45;;;1.50;;
74375;SDS011;62812;55.188;61.302;2023-04-10T05:17:48;7.85;;;1.25;;
74375;SDS011;62812;55.188;61.302;2023-04-10T05:20:25;17.77;;;1.92;;
74375;SDS011;62812;55.188;61.302;2023-04-10T05:23:00;10.95;;;1.75;;
74375;SDS011;62812;55.188;61.302;2023-04-10T05:25:32;10.95;;;1.60;;
74375;SDS011;62812;55.188;61.302;2023-04-10T05:28:06;18.08;;;2.05;;
74375;SDS011;62812;55.188;61.302;2023-04-10T05:30:40;10.50;;;1.85;;
74375;SDS011;62812;55.188;61.302;2023-04-10T05:33:15;18.27;;;2.15;;
74375;SDS011;62812;55.188;61.302;2023-04-10T05:35:47;5.65;;;1.38;;
74375;SDS011;62812;55.188;61.302;2023-04-10T05:38:25;6.32;;;1.77;;
74375;SDS011;62812;55.188;61.302;2023-04-10T05:40:57;26.25;;;2.03;;
74375;SDS011;62812;55.188;61.302;2023-04-10T05:43:29;21.10;;;2.67;;
74375;SDS011;62812;55.188;61.302;2023-04-10T05:46:04;11.88;;;1.50;;
74375;SDS011;62812;55.188;61.302;2023-04-10T05:48:37;10.60;;;1.90;;
74375;SDS011;62812;55.188;61.302;2023-04-10T05:51:12;14.43;;;1.70;;
74375;SDS011;62812;55.188;61.302;2023-04-10T05:53:47;12.27;;;1.67;;
74375;SDS011;62812;55.188;61.302;2023-04-10T05:56:20;11.90;;;1.77;;
74375;SDS011;62812;55.188;61.302;2023-04-10T05:58:53;10.98;;;2.33;;
74375;SDS011;62812;55.188;61.302;2023-04-10T06:01:31;10.25;;;1.77;;
74375;SDS011;62812;55.188;61.302;2023-04-10T06:04:11;15.98;;;2.20;;
74375;SDS011;62812;55.188;61.302;2023-04-10T06:06:57;16.60;;;2.45;;
74375;SDS011;62812;55.188;61.302;2023-04-10T06:09:38;17.13;;;2.22;;
74375;SDS011;62812;55.188;61.302;2023-04-10T06:12:22;15.75;;;2.05;;
74375;SDS011;62812;55.188;61.302;2023-04-10T06:15:05;10.57;;;1.90;;
74375;SDS011;62812;55.188;61.302;2023-04-10T06:17:47;20.17;;;2.97;;
74375;SDS011;62812;55.188;61.302;2023-04-10T06:20:46;15.70;;;2.35;;
74375;SDS011;62812;55.188;61.302;2023-04-10T06:23:29;18.65;;;2.53;;
74375;SDS011;62812;55.188;61.302;2023-04-10T06:26:04;8.77;;;1.65;;
74375;SDS011;62812;55.188;61.302;2023-04-10T06:28:37;11.95;;;1.83;;
74375;SDS011;62812;55.188;61.302;2023-04-10T06:31:09;10.57;;;1.90;;
74375;SDS011;62812;55.188;61.302;2023-04-10T06:33:41;7.63;;;1.52;;
74375;SDS011;62812;55.188;61.302;2023-04-10T06:36:14;5.68;;;1.27;;
74375;SDS011;62812;55.188;61.302;2023-04-10T06:38:46;17.17;;;3.33;;
74375;SDS011;62812;55.188;61.302;2023-04-10T06:41:21;5.25;;;0.80;;
74375;SDS011;62812;55.188;61.302;2023-04-10T06:43:53;5.53;;;1.88;;
74375;SDS011;62812;55.188;61.302;2023-04-10T06:46:28;7.50;;;1.30;;
74375;SDS011;62812;55.188;61.302;2023-04-10T06:49:01;1.83;;;0.70;;
74375;SDS011;62812;55.188;61.302;2023-04-10T06:55:21;3.22;;;1.05;;
74375;SDS011;62812;55.188;61.302;2023-04-10T06:57:56;5.20;;;1.10;;
74375;SDS011;62812;55.188;61.302;2023-04-10T07:00:30;3.92;;;1.00;;
74375;SDS011;62812;55.188;61.302;2023-04-10T07:03:02;5.88;;;0.80;;
74375;SDS011;62812;55.188;61.302;2023-04-10T07:05:34;7.07;;;1.20;;
74375;SDS011;62812;55.188;61.302;2023-04-10T07:08:06;5.68;;;1.23;;
74375;SDS011;62812;55.188;61.302;2023-04-10T07:10:39;5.80;;;1.35;;
74375;SDS011;62812;55.188;61.302;2023-04-10T07:13:12;12.25;;;1.40;;
74375;SDS011;62812;55.188;61.302;2023-04-10T07:15:44;4.32;;;1.23;;
74375;SDS011;62812;55.188;61.302;2023-04-10T07:18:16;4.38;;;1.08;;
74375;SDS011;62812;55.188;61.302;2023-04-10T07:20:49;8.52;;;1.60;;
74375;SDS011;62812;55.188;61.302;2023-04-10T07:23:22;4.78;;;0.70;;
74375;SDS011;62812;55.188;61.302;2023-04-10T07:25:55;4.53;;;1.45;;
74375;SDS011;62812;55.188;61.302;2023-04-10T07:28:29;8.10;;;1.27;;
74375;SDS011;62812;55.188;61.302;2023-04-10T07:31:03;3.58;;;1.00;;
74375;SDS011;62812;55.188;61.302;2023-04-10T07:33:36;4.07;;;0.88;;
74375;SDS011;62812;55.188;61.302;2023-04-10T07:36:09;5.78;;;1.33;;
74375;SDS011;62812;55.188;61.302;2023-04-10T07:38:45;6.45;;;1.65;;
74375;SDS011;62812;55.188;61.302;2023-04-10T07:41:33;3.55;;;1.30;;
74375;SDS011;62812;55.188;61.302;2023-04-10T07:44:16;5.05;;;0.85;;
74375;SDS011;62812;55.188;61.302;2023-04-10T07:46:55;4.35;;;1.00;;
74375;SDS011;62812;55.188;61.302;2023-04-10T07:49:35;8.73;;;1.98;;
74375;SDS011;62812;55.188;61.302;2023-04-10T07:52:18;4.70;;;1.05;;
74375;SDS011;62812;55.188;61.302;2023-04-10T07:54:56;5.85;;;1.50;;
74375;SDS011;62812;55.188;61.302;2023-04-10T07:57:31;5.85;;;1.10;;
74375;SDS011;62812;55.188;61.302;2023-04-10T08:00:11;5.00;;;1.13;;
74375;SDS011;62812;55.188;61.302;2023-04-10T08:02:44;5.13;;;1.40;;
74375;SDS011;62812;55.188;61.302;2023-04-10T08:05:19;6.03;;;1.17;;
74375;SDS011;62812;55.188;61.302;2023-04-10T08:11:03;9.38;;;1.40;;
74375;SDS011;62812;55.188;61.302;2023-04-10T08:17:04;8.43;;;1.90;;
74375;SDS011;62812;55.188;61.302;2023-04-10T08:22:45;5.95;;;1.30;;
74375;SDS011;62812;55.188;61.302;2023-04-10T08:25:21;15.00;;;2.05;;
74375;SDS011;62812;55.188;61.302;2023-04-10T08:27:57;7.95;;;1.50;;
74375;SDS011;62812;55.188;61.302;2023-04-10T08:30:40;6.72;;;1.55;;
74375;SDS011;62812;55.188;61.302;2023-04-10T08:33:19;5.60;;;1.70;;
74375;SDS011;62812;55.188;61.302;2023-04-10T08:35:54;10.65;;;1.65;;
74375;SDS011;62812;55.188;61.302;2023-04-10T08:38:46;6.65;;;1.60;;
74375;SDS011;62812;55.188;61.302;2023-04-10T08:41:30;4.78;;;1.48;;
74375;SDS011;62812;55.188;61.302;2023-04-10T08:44:04;9.68;;;2.03;;
74375;SDS011;62812;55.188;61.302;2023-04-10T08:46:49;8.32;;;1.85;;
74375;SDS011;62812;55.188;61.302;2023-04-10T08:49:35;6.20;;;1.42;;
74375;SDS011;62812;55.188;61.302;2023-04-10T08:52:13;11.27;;;1.80;;
74375;SDS011;62812;55.188;61.302;2023-04-10T08:54:49;9.10;;;2.13;;
74375;SDS011;62812;55.188;61.302;2023-04-10T08:57:28;9.63;;;3.10;;
74375;SDS011;62812;55.188;61.302;2023-04-10T09:00:05;5.60;;;2.40;;
74375;SDS011;62812;55.188;61.302;2023-04-10T09:02:40;10.23;;;3.40;;
74375;SDS011;62812;55.188;61.302;2023-04-10T09:11:07;16.05;;;3.25;;
74375;SDS011;62812;55.188;61.302;2023-04-10T09:13:44;14.18;;;3.25;;
74375;SDS011;62812;55.188;61.302;2023-04-10T09:19:44;25.23;;;3.35;;
74375;SDS011;62812;55.188;61.302;2023-04-10T09:22:17;9.95;;;2.63;;
74375;SDS011;62812;55.188;61.302;2023-04-10T09:25:03;8.70;;;2.50;;
74375;SDS011;62812;55.188;61.302;2023-04-10T09:30:36;5.00;;;1.27;;
74375;SDS011;62812;55.188;61.302;2023-04-10T09:33:20;4.70;;;1.33;;
74375;SDS011;62812;55.188;61.302;2023-04-10T09:35:53;6.65;;;2.28;;
74375;SDS011;62812;55.188;61.302;2023-04-10T09:38:30;4.00;;;1.13;;
74375;SDS011;62812;55.188;61.302;2023-04-10T09:41:08;3.90;;;1.25;;
74375;SDS011;62812;55.188;61.302;2023-04-10T09:43:42;8.15;;;1.40;;
74375;SDS011;62812;55.188;61.302;2023-04-10T09:46:43;5.93;;;1.50;;
74375;SDS011;62812;55.188;61.302;2023-04-10T09:49:20;2.30;;;0.70;;
74375;SDS011;62812;55.188;61.302;2023-04-10T09:51:57;4.65;;;1.83;;
74375;SDS011;62812;55.188;61.302;2023-04-10T10:07:41;5.32;;;1.30;;
74375;SDS011;62812;55.188;61.302;2023-04-10T10:10:15;6.85;;;1.50;;
74375;SDS011;62812;55.188;61.302;2023-04-10T10:16:08;7.03;;;0.93;;
74375;SDS011;62812;55.188;61.302;2023-04-10T10:22:02;5.60;;;1.35;;
74375;SDS011;62812;55.188;61.302;2023-04-10T10:28:04;6.28;;;1.13;;
74375;SDS011;62812;55.188;61.302;2023-04-10T10:30:37;2.03;;;0.75;;
74375;SDS011;62812;55.188;61.302;2023-04-10T10:33:10;3.85;;;1.40;;
74375;SDS011;62812;55.188;61.302;2023-04-10T10:35:44;13.50;;;2.75;;
74375;SDS011;62812;55.188;61.302;2023-04-10T10:38:16;4.63;;;1.50;;
74375;SDS011;62812;55.188;61.302;2023-04-10T10:40:50;7.18;;;1.65;;
74375;SDS011;62812;55.188;61.302;2023-04-10T10:46:35;13.35;;;1.98;;
74375;SDS011;62812;55.188;61.302;2023-04-10T10:49:11;6.40;;;1.92;;
74375;SDS011;62812;55.188;61.302;2023-04-10T10:51:45;4.43;;;1.58;;
74375;SDS011;62812;55.188;61.302;2023-04-10T10:54:28;10.13;;;1.60;;
74375;SDS011;62812;55.188;61.302;2023-04-10T10:57:03;6.50;;;1.52;;
74375;SDS011;62812;55.188;61.302;2023-04-10T10:59:55;7.32;;;2.00;;
74375;SDS011;62812;55.188;61.302;2023-04-10T11:02:35;3.55;;;1.08;;
74375;SDS011;62812;55.188;61.302;2023-04-10T11:05:07;5.40;;;1.58;;
74375;SDS011;62812;55.188;61.302;2023-04-10T11:10:59;6.55;;;1.88;;
74375;SDS011;62812;55.188;61.302;2023-04-10T11:13:37;4.60;;;1.10;;
74375;SDS011;62812;55.188;61.302;2023-04-10T11:16:13;7.65;;;2.53;;
74375;SDS011;62812;55.188;61.302;2023-04-10T11:22:03;15.57;;;5.45;;
74375;SDS011;62812;55.188;61.302;2023-04-10T11:27:50;10.27;;;2.90;;
74375;SDS011;62812;55.188;61.302;2023-04-10T11:33:24;9.32;;;1.67;;
74375;SDS011;62812;55.188;61.302;2023-04-10T11:39:12;7.35;;;1.88;;
74375;SDS011;62812;55.188;61.302;2023-04-10T11:41:52;5.03;;;2.10;;
74375;SDS011;62812;55.188;61.302;2023-04-10T11:44:28;4.43;;;1.10;;
74375;SDS011;62812;55.188;61.302;2023-04-10T11:47:02;8.30;;;1.83;;
74375;SDS011;62812;55.188;61.302;2023-04-10T11:52:51;6.43;;;1.50;;
74375;SDS011;62812;55.188;61.302;2023-04-10T11:55:36;4.38;;;1.30;;
74375;SDS011;62812;55.188;61.302;2023-04-10T11:58:21;2.28;;;0.90;;
74375;SDS011;62812;55.188;61.302;2023-04-10T12:00:55;7.80;;;1.60;;
74375;SDS011;62812;55.188;61.302;2023-04-10T12:06:25;3.28;;;1.05;;
74375;SDS011;62812;55.188;61.302;2023-04-10T12:08:58;6.82;;;2.10;;
74375;SDS011;62812;55.188;61.302;2023-04-10T12:14:45;3.58;;;1.25;;
74375;SDS011;62812;55.188;61.302;2023-04-10T12:17:13;7.88;;;1.75;;
74375;SDS011;62812;55.188;61.302;2023-04-10T12:19:42;5.53;;;1.52;;
74375;SDS011;62812;55.188;61.302;2023-04-10T12:22:10;4.95;;;1.75;;
74375;SDS011;62812;55.188;61.302;2023-04-10T12:30:50;3.42;;;1.30;;
74375;SDS011;62812;55.188;61.302;2023-04-10T12:33:21;2.75;;;0.98;;
74375;SDS011;62812;55.188;61.302;2023-04-10T12:35:48;4.63;;;1.45;;
74375;SDS011;62812;55.188;61.302;2023-04-10T12:44:07;2.92;;;1.10;;
74375;SDS011;62812;55.188;61.302;2023-04-10T12:46:37;5.05;;;2.15;;
74375;SDS011;62812;55.188;61.302;2023-04-10T12:49:12;13.10;;;4.57;;
74375;SDS011;62812;55.188;61.302;2023-04-10T12:51:46;11.48;;;3.90;;
74375;SDS011;62812;55.188;61.302;2023-04-10T12:54:27;17.75;;;4.60;;
74375;SDS011;62812;55.188;61.302;2023-04-10T12:59:57;16.35;;;3.95;;
74375;SDS011;62812;55.188;61.302;2023-04-10T13:05:57;8.85;;;2.53;;
74375;SDS011;62812;55.188;61.302;2023-04-10T13:24:33;8.43;;;1.27;;
74375;SDS011;62812;55.188;61.302;2023-04-10T13:27:08;6.85;;;1.33;;
74375;SDS011;62812;55.188;61.302;2023-04-10T13:29:41;9.75;;;1.30;;
74375;SDS011;62812;55.188;61.302;2023-04-10T13:32:09;7.97;;;1.08;;
74375;SDS011;62812;55.188;61.302;2023-04-10T13:37:44;8.55;;;1.13;;
74375;SDS011;62812;55.188;61.302;2023-04-10T13:43:19;6.10;;;1.15;;
74375;SDS011;62812;55.188;61.302;2023-04-10T13:51:59;9.45;;;1.50;;
74375;SDS011;62812;55.188;61.302;2023-04-10T13:55:02;6.05;;;0.90;;
74375;SDS011;62812;55.188;61.302;2023-04-10T13:57:45;6.63;;;1.10;;
74375;SDS011;62812;55.188;61.302;2023-04-10T14:00:17;10.32;;;1.35;;
74375;SDS011;62812;55.188;61.302;2023-04-10T14:02:50;4.50;;;1.15;;
74375;SDS011;62812;55.188;61.302;2023-04-10T14:05:23;5.93;;;1.23;;
74375;SDS011;62812;55.188;61.302;2023-04-10T14:07:58;11.77;;;1.50;;
74375;SDS011;62812;55.188;61.302;2023-04-10T14:10:33;6.53;;;1.40;;
74375;SDS011;62812;55.188;61.302;2023-04-10T14:13:09;7.10;;;1.65;;
74375;SDS011;62812;55.188;61.302;2023-04-10T14:15:46;5.68;;;1.25;;
74375;SDS011;62812;55.188;61.302;2023-04-10T14:18:19;6.55;;;1.52;;
74375;SDS011;62812;55.188;61.302;2023-04-10T14:20:53;8.57;;;0.93;;
74375;SDS011;62812;55.188;61.302;2023-04-10T14:23:43;11.05;;;1.20;;
74375;SDS011;62812;55.188;61.302;2023-04-10T14:26:26;9.27;;;1.00;;
74375;SDS011;62812;55.188;61.302;2023-04-10T14:36:35;5.57;;;1.13;;
74375;SDS011;62812;55.188;61.302;2023-04-10T14:39:02;10.55;;;1.67;;
74375;SDS011;62812;55.188;61.302;2023-04-10T14:41:31;4.13;;;0.65;;
74375;SDS011;62812;55.188;61.302;2023-04-10T14:43:59;3.88;;;0.70;;
74375;SDS011;62812;55.188;61.302;2023-04-10T14:46:28;5.18;;;0.88;;
74375;SDS011;62812;55.188;61.302;2023-04-10T14:48:58;2.50;;;0.98;;
74375;SDS011;62812;55.188;61.302;2023-04-10T14:51:43;4.10;;;0.60;;
74375;SDS011;62812;55.188;61.302;2023-04-10T14:54:32;5.18;;;0.73;;
74375;SDS011;62812;55.188;61.302;2023-04-10T14:57:02;5.03;;;0.90;;
74375;SDS011;62812;55.188;61.302;2023-04-10T17:10:50;16.10;;;6.30;;
74375;SDS011;62812;55.188;61.302;2023-04-10T17:13:23;16.67;;;5.75;;
74375;SDS011;62812;55.188;61.302;2023-04-10T17:15:53;21.83;;;7.72;;
74375;SDS011;62812;55.188;61.302;2023-04-10T17:18:21;20.33;;;7.47;;
74375;SDS011;62812;55.188;61.302;2023-04-10T17:20:48;22.85;;;7.78;;
74375;SDS011;62812;55.188;61.302;2023-04-10T17:23:18;20.70;;;6.78;;
74375;SDS011;62812;55.188;61.302;2023-04-10T17:25:50;20.63;;;7.18;;
74375;SDS011;62812;55.188;61.302;2023-04-10T17:28:22;21.58;;;7.35;;
74375;SDS011;62812;55.188;61.302;2023-04-10T17:31:00;23.98;;;8.57;;
74375;SDS011;62812;55.188;61.302;2023-04-10T17:33:35;24.08;;;9.02;;
74375;SDS011;62812;55.188;61.302;2023-04-10T17:36:15;23.13;;;9.48;;
74375;SDS011;62812;55.188;61.302;2023-04-10T17:38:43;21.08;;;8.63;;
74375;SDS011;62812;55.188;61.302;2023-04-10T17:41:19;28.88;;;8.75;;
74375;SDS011;62812;55.188;61.302;2023-04-10T17:43:50;29.73;;;9.88;;
74375;SDS011;62812;55.188;61.302;2023-04-10T17:46:18;22.30;;;7.15;;
74375;SDS011;62812;55.188;61.302;2023-04-10T17:48:57;24.92;;;9.05;;
74375;SDS011;62812;55.188;61.302;2023-04-10T17:51:27;25.67;;;6.82;;
74375;SDS011;62812;55.188;61.302;2023-04-10T17:53:54;24.08;;;8.32;;
74375;SDS011;62812;55.188;61.302;2023-04-10T17:56:32;18.60;;;6.78;;
74375;SDS011;62812;55.188;61.302;2023-04-10T17:59:06;18.35;;;7.65;;
74375;SDS011;62812;55.188;61.302;2023-04-10T18:01:33;26.88;;;7.40;;
74375;SDS011;62812;55.188;61.302;2023-04-10T18:04:01;21.70;;;6.82;;
74375;SDS011;62812;55.188;61.302;2023-04-10T18:06:31;19.98;;;6.07;;
74375;SDS011;62812;55.188;61.302;2023-04-10T18:08:59;16.48;;;5.70;;
74375;SDS011;62812;55.188;61.302;2023-04-10T18:11:28;15.63;;;4.82;;
74375;SDS011;62812;55.188;61.302;2023-04-10T18:13:58;11.85;;;4.72;;
74375;SDS011;62812;55.188;61.302;2023-04-10T18:16:29;12.60;;;4.60;;
74375;SDS011;62812;55.188;61.302;2023-04-10T18:18:57;15.48;;;4.20;;
74375;SDS011;62812;55.188;61.302;2023-04-10T18:21:26;11.85;;;3.85;;
74375;SDS011;62812;55.188;61.302;2023-04-10T18:23:59;12.85;;;3.83;;
74375;SDS011;62812;55.188;61.302;2023-04-10T18:26:28;12.93;;;4.35;;
74375;SDS011;62812;55.188;61.302;2023-04-10T18:28:59;14.15;;;3.50;;
74375;SDS011;62812;55.188;61.302;2023-04-10T18:31:26;10.80;;;3.40;;
74375;SDS011;62812;55.188;61.302;2023-04-10T18:33:53;11.10;;;3.08;;
74375;SDS011;62812;55.188;61.302;2023-04-10T18:36:26;10.93;;;3.22;;
74375;SDS011;62812;55.188;61.302;2023-04-10T18:39:10;9.43;;;2.53;;
74375;SDS011;62812;55.188;61.302;2023-04-10T18:44:36;7.28;;;1.90;;
74375;SDS011;62812;55.188;61.302;2023-04-10T18:47:08;7.25;;;1.95;;
74375;SDS011;62812;55.188;61.302;2023-04-10T18:49:35;5.88;;;1.52;;
74375;SDS011;62812;55.188;61.302;2023-04-10T18:52:02;6.95;;;1.60;;
74375;SDS011;62812;55.188;61.302;2023-04-10T18:54:29;7.78;;;1.80;;
74375;SDS011;62812;55.188;61.302;2023-04-10T18:56:56;4.60;;;1.52;;
74375;SDS011;62812;55.188;61.302;2023-04-10T18:59:35;13.60;;;1.73;;
74375;SDS011;62812;55.188;61.302;2023-04-10T19:02:02;7.53;;;1.65;;
74375;SDS011;62812;55.188;61.302;2023-04-10T19:04:29;6.70;;;2.00;;
74375;SDS011;62812;55.188;61.302;2023-04-10T19:06:56;6.32;;;1.83;;
74375;SDS011;62812;55.188;61.302;2023-04-10T19:09:24;5.50;;;1.70;;
74375;SDS011;62812;55.188;61.302;2023-04-10T19:11:51;6.82;;;1.98;;
74375;SDS011;62812;55.188;61.302;2023-04-10T19:14:18;7.22;;;1.83;;
74375;SDS011;62812;55.188;61.302;2023-04-10T19:16:47;5.97;;;2.08;;
74375;SDS011;62812;55.188;61.302;2023-04-10T19:19:13;7.60;;;2.13;;
74375;SDS011;62812;55.188;61.302;2023-04-10T19:21:40;8.00;;;2.20;;
74375;SDS011;62812;55.188;61.302;2023-04-10T19:24:06;10.82;;;3.17;;
74375;SDS011;62812;55.188;61.302;2023-04-10T19:26:33;10.85;;;4.28;;
74375;SDS011;62812;55.188;61.302;2023-04-10T19:29:00;14.90;;;5.22;;
74375;SDS011;62812;55.188;61.302;2023-04-10T19:31:26;15.65;;;5.63;;
74375;SDS011;62812;55.188;61.302;2023-04-10T19:33:55;21.15;;;5.85;;
74375;SDS011;62812;55.188;61.302;2023-04-10T19:36:23;17.10;;;6.75;;
74375;SDS011;62812;55.188;61.302;2023-04-10T19:38:51;19.75;;;6.50;;
74375;SDS011;62812;55.188;61.302;2023-04-10T19:41:18;20.15;;;7.28;;
74375;SDS011;62812;55.188;61.302;2023-04-10T19:43:45;16.58;;;7.80;;
74375;SDS011;62812;55.188;61.302;2023-04-10T19:46:15;17.95;;;7.05;;
74375;SDS011;62812;55.188;61.302;2023-04-10T19:48:42;19.25;;;8.80;;
74375;SDS011;62812;55.188;61.302;2023-04-10T19:51:10;17.88;;;8.55;;
74375;SDS011;62812;55.188;61.302;2023-04-10T19:53:37;23.50;;;9.63;;
74375;SDS011;62812;55.188;61.302;2023-04-10T19:56:04;18.67;;;9.38;;
74375;SDS011;62812;55.188;61.302;2023-04-10T19:58:36;21.70;;;9.82;;
74375;SDS011;62812;55.188;61.302;2023-04-10T20:01:04;23.42;;;9.88;;
74375;SDS011;62812;55.188;61.302;2023-04-10T20:03:31;22.02;;;10.88;;
74375;SDS011;62812;55.188;61.302;2023-04-10T20:05:58;21.20;;;10.65;;
74375;SDS011;62812;55.188;61.302;2023-04-10T20:08:26;19.15;;;9.82;;
74375;SDS011;62812;55.188;61.302;2023-04-10T20:10:53;18.27;;;9.93;;
74375;SDS011;62812;55.188;61.302;2023-04-10T20:13:20;19.48;;;10.50;;
74375;SDS011;62812;55.188;61.302;2023-04-10T20:15:47;21.73;;;10.73;;
74375;SDS011;62812;55.188;61.302;2023-04-10T20:18:14;22.27;;;10.23;;
74375;SDS011;62812;55.188;61.302;2023-04-10T20:20:41;20.92;;;10.52;;
74375;SDS011;62812;55.188;61.302;2023-04-10T20:23:08;18.65;;;10.40;;
74375;SDS011;62812;55.188;61.302;2023-04-10T20:25:36;22.23;;;10.82;;
74375;SDS011;62812;55.188;61.302;2023-04-10T20:28:03;20.58;;;9.38;;
74375;SDS011;62812;55.188;61.302;2023-04-10T20:30:30;20.63;;;10.10;;
74375;SDS011;62812;55.188;61.302;2023-04-10T20:32:56;19.08;;;10.23;;
74375;SDS011;62812;55.188;61.302;2023-04-10T20:35:23;27.35;;;10.30;;
74375;SDS011;62812;55.188;61.302;2023-04-10T20:37:51;16.23;;;8.60;;
74375;SDS011;62812;55.188;61.302;2023-04-10T20:40:17;21.88;;;9.48;;
74375;SDS011;62812;55.188;61.302;2023-04-10T20:42:46;18.75;;;9.20;;
74375;SDS011;62812;55.188;61.302;2023-04-10T20:45:12;23.65;;;10.95;;
74375;SDS011;62812;55.188;61.302;2023-04-10T20:47:39;19.45;;;10.55;;
74375;SDS011;62812;55.188;61.302;2023-04-10T20:50:07;20.65;;;11.55;;
74375;SDS011;62812;55.188;61.302;2023-04-10T20:52:34;20.83;;;11.05;;
74375;SDS011;62812;55.188;61.302;2023-04-10T20:55:01;22.00;;;10.57;;
74375;SDS011;62812;55.188;61.302;2023-04-10T20:57:28;23.40;;;10.90;;
74375;SDS011;62812;55.188;61.302;2023-04-10T20:59:56;23.88;;;11.43;;
74375;SDS011;62812;55.188;61.302;2023-04-10T21:02:23;19.38;;;10.15;;
74375;SDS011;62812;55.188;61.302;2023-04-10T21:04:49;20.02;;;10.85;;
74375;SDS011;62812;55.188;61.302;2023-04-10T21:07:17;22.10;;;9.77;;
74375;SDS011;62812;55.188;61.302;2023-04-10T21:09:43;27.23;;;10.35;;
74375;SDS011;62812;55.188;61.302;2023-04-10T21:12:10;22.92;;;10.10;;
74375;SDS011;62812;55.188;61.302;2023-04-10T21:14:37;18.40;;;9.00;;
74375;SDS011;62812;55.188;61.302;2023-04-10T21:17:05;20.23;;;9.02;;
74375;SDS011;62812;55.188;61.302;2023-04-10T21:19:32;16.55;;;8.35;;
74375;SDS011;62812;55.188;61.302;2023-04-10T21:21:58;16.20;;;8.25;;
74375;SDS011;62812;55.188;61.302;2023-04-10T21:24:25;20.52;;;8.57;;
74375;SDS011;62812;55.188;61.302;2023-04-10T21:26:52;17.10;;;7.55;;
74375;SDS011;62812;55.188;61.302;2023-04-10T21:29:19;18.30;;;8.38;;